createdAt,value
2023-03-15T00:01:52.357Z,96013.75
2023-03-15T00:04:19.033Z,96031.56
2023-03-15T00:06:46.066Z,96039.25
2023-03-15T00:09:13.994Z,96050.63
2023-03-15T00:11:40.533Z,96033.16
2023-03-15T00:14:07.091Z,96086.41
2023-03-15T00:16:33.856Z,96087.38
2023-03-15T00:19:00.575Z,96091.44
2023-03-15T00:21:29.898Z,96114.41
2023-03-15T00:23:57.340Z,96141.72
2023-03-15T00:26:23.952Z,96137.47
2023-03-15T00:28:51.550Z,96156.28
2023-03-15T00:31:21.798Z,96183.72
2023-03-15T00:33:49.348Z,96185.78
2023-03-15T00:36:16.562Z,96184.78
2023-03-15T00:38:44.599Z,96193.56
2023-03-15T00:41:17.303Z,96230.69
2023-03-15T00:43:45.051Z,96227.25
2023-03-15T00:46:12.714Z,96205.69
2023-03-15T00:48:39.600Z,96226.00
2023-03-15T00:51:10.050Z,96254.56
2023-03-15T00:53:38.523Z,96264.38
2023-03-15T00:56:11.544Z,96247.13
2023-03-15T00:58:39.231Z,96264.88
2023-03-15T01:01:14.159Z,96269.78
2023-03-15T01:03:42.096Z,96290.72
2023-03-15T01:06:23.352Z,96308.31
2023-03-15T01:09:00.249Z,96310.56
2023-03-15T01:11:28.513Z,96319.28
2023-03-15T01:13:57.205Z,96306.88
2023-03-15T01:16:24.922Z,96326.41
2023-03-15T01:18:52.030Z,96349.19
2023-03-15T01:21:19.432Z,96348.06
2023-03-15T01:23:46.603Z,96334.13
2023-03-15T01:26:15.170Z,96332.69
2023-03-15T01:28:42.129Z,96312.19
2023-03-15T01:31:19.278Z,96337.34
2023-03-15T01:33:46.016Z,96339.53
2023-03-15T01:36:13.153Z,96365.06
2023-03-15T01:38:39.911Z,96351.41
2023-03-15T01:41:06.586Z,96349.50
2023-03-15T01:43:34.440Z,96356.47
2023-03-15T01:46:25.158Z,96364.72
2023-03-15T01:48:54.505Z,96358.72
2023-03-15T01:51:27.432Z,96371.38
2023-03-15T01:54:06.654Z,96381.19
2023-03-15T01:56:35.541Z,96402.00
2023-03-15T01:59:05.801Z,96386.81
2023-03-15T02:01:35.791Z,96406.03
2023-03-15T02:04:16.766Z,96398.91
2023-03-15T02:06:47.211Z,96419.44
2023-03-15T02:09:15.337Z,96427.16
2023-03-15T02:11:43.533Z,96426.19
2023-03-15T02:14:13.565Z,96427.25
2023-03-15T02:16:40.451Z,96422.47
2023-03-15T02:19:11.907Z,96417.19
2023-03-15T02:22:09.406Z,96424.94
2023-03-15T02:24:57.693Z,96439.06
2023-03-15T02:27:44.902Z,96446.03
2023-03-15T02:30:12.026Z,96435.88
2023-03-15T02:32:39.482Z,96455.66
2023-03-15T02:35:07.631Z,96454.00
2023-03-15T02:37:34.245Z,96446.84
2023-03-15T02:40:00.807Z,96439.81
2023-03-15T02:42:28.787Z,96427.56
2023-03-15T02:44:57.355Z,96454.97
2023-03-15T02:47:32.766Z,96444.19
2023-03-15T02:49:59.698Z,96443.09
2023-03-15T02:52:26.526Z,96450.63
2023-03-15T02:54:54.435Z,96452.66
2023-03-15T02:57:21.509Z,96452.28
2023-03-15T02:59:51.143Z,96446.78
2023-03-15T03:02:18.468Z,96448.25
2023-03-15T03:04:45.714Z,96445.19
2023-03-15T03:07:13.298Z,96447.75
2023-03-15T03:09:40.005Z,96469.78
2023-03-15T03:12:07.232Z,96473.06
2023-03-15T03:14:33.960Z,96487.22
2023-03-15T03:17:01.687Z,96488.69
2023-03-15T03:19:28.364Z,96489.47
2023-03-15T03:21:55.079Z,96491.31
2023-03-15T03:24:26.436Z,96495.16
2023-03-15T03:26:57.967Z,96478.28
2023-03-15T03:29:25.752Z,96489.03
2023-03-15T03:31:52.736Z,96506.03
2023-03-15T03:34:20.039Z,96509.47
2023-03-15T03:36:48.866Z,96506.91
2023-03-15T03:39:15.653Z,96480.97
2023-03-15T03:41:42.634Z,96513.94
2023-03-15T03:44:09.274Z,96489.84
2023-03-15T03:46:36.547Z,96520.63
2023-03-15T03:49:03.442Z,96521.94
2023-03-15T03:51:30.839Z,96519.91
2023-03-15T03:53:57.612Z,96518.75
2023-03-15T03:56:24.161Z,96536.34
2023-03-15T03:58:51.131Z,96521.50
2023-03-15T04:01:18.902Z,96535.81
2023-03-15T04:03:45.484Z,96534.16
2023-03-15T04:06:12.081Z,96533.06
2023-03-15T04:08:38.736Z,96550.88
2023-03-15T04:11:05.463Z,96526.50
2023-03-15T04:13:32.159Z,96518.34
2023-03-15T04:16:01.550Z,96542.97
2023-03-15T04:18:28.520Z,96556.50
2023-03-15T04:20:55.380Z,96559.38
2023-03-15T04:23:23.544Z,96556.31
2023-03-15T04:25:55.356Z,96537.31
2023-03-15T04:28:23.066Z,96557.72
2023-03-15T04:30:50.585Z,96555.50
2023-03-15T04:33:17.324Z,96572.97
2023-03-15T04:35:44.110Z,96586.69
2023-03-15T04:38:11.161Z,96572.06
2023-03-15T04:40:37.805Z,96553.94
2023-03-15T04:43:05.626Z,96592.28
2023-03-15T04:45:32.473Z,96597.88
2023-03-15T04:48:01.574Z,96596.47
2023-03-15T04:50:30.064Z,96596.47
2023-03-15T04:52:58.815Z,96595.56
2023-03-15T04:55:25.534Z,96606.06
2023-03-15T04:57:52.344Z,96557.03
2023-03-15T05:00:20.188Z,96591.09
2023-03-15T05:02:54.943Z,96591.38
2023-03-15T05:05:23.966Z,96588.59
2023-03-15T05:07:51.193Z,96587.13
2023-03-15T05:10:18.335Z,96576.66
2023-03-15T05:12:44.994Z,96586.72
2023-03-15T05:15:13.144Z,96607.66
2023-03-15T05:17:39.816Z,96595.78
2023-03-15T05:20:12.820Z,96595.59
2023-03-15T05:22:40.972Z,96580.53
2023-03-15T05:25:10.118Z,96615.31
2023-03-15T05:27:38.014Z,96605.03
2023-03-15T05:30:06.164Z,96628.75
2023-03-15T05:32:39.725Z,96631.16
2023-03-15T05:35:07.761Z,96645.78
2023-03-15T05:37:35.809Z,96649.47
2023-03-15T05:40:08.340Z,96664.13
2023-03-15T05:42:35.629Z,96663.63
2023-03-15T05:45:02.524Z,96663.63
2023-03-15T05:47:29.378Z,96672.00
2023-03-15T05:49:56.037Z,96670.78
2023-03-15T05:52:22.697Z,96668.31
2023-03-15T05:54:49.426Z,96649.88
2023-03-15T05:57:16.020Z,96654.84
2023-03-15T05:59:42.573Z,96657.63
2023-03-15T06:02:09.459Z,96640.78
2023-03-15T06:04:38.051Z,96625.06
2023-03-15T06:07:05.219Z,96663.63
2023-03-15T06:09:32.193Z,96671.50
2023-03-15T06:11:59.408Z,96657.84
2023-03-15T06:14:27.567Z,96639.00
2023-03-15T06:16:54.423Z,96679.97
2023-03-15T06:19:21.960Z,96662.81
2023-03-15T06:21:48.916Z,96696.69
2023-03-15T06:24:15.915Z,96686.50
2023-03-15T06:26:42.796Z,96726.81
2023-03-15T06:29:09.830Z,96742.03
2023-03-15T06:31:36.664Z,96742.31
2023-03-15T06:34:03.289Z,96726.78
2023-03-15T06:36:31.512Z,96758.88
2023-03-15T06:38:58.237Z,96747.53
2023-03-15T06:41:24.997Z,96747.41
2023-03-15T06:43:51.964Z,96747.13
2023-03-15T06:46:18.636Z,96755.50
2023-03-15T06:48:45.280Z,96767.88
2023-03-15T06:51:11.926Z,96769.66
2023-03-15T06:53:39.124Z,96788.63
2023-03-15T06:56:05.920Z,96782.13
2023-03-15T06:58:32.553Z,96783.63
2023-03-15T07:00:59.159Z,96798.56
2023-03-15T07:03:25.972Z,96798.59
2023-03-15T07:05:54.417Z,96799.56
2023-03-15T07:08:22.026Z,96808.56
2023-03-15T07:10:49.745Z,96811.94
2023-03-15T07:13:19.368Z,96808.06
2023-03-15T07:15:47.881Z,96806.78
2023-03-15T07:18:14.606Z,96804.38
2023-03-15T07:20:41.154Z,96801.47
2023-03-15T07:23:07.864Z,96811.06
2023-03-15T07:25:44.945Z,96826.69
2023-03-15T07:28:19.265Z,96819.03
2023-03-15T07:31:02.784Z,96827.06
2023-03-15T07:33:31.794Z,96820.59
2023-03-15T07:35:58.663Z,96811.53
2023-03-15T07:38:31.806Z,96818.50
2023-03-15T07:41:02.675Z,96819.50
2023-03-15T07:43:29.645Z,96817.72
2023-03-15T07:45:56.518Z,96770.75
2023-03-15T07:48:23.329Z,96802.78
2023-03-15T07:50:50.522Z,96819.00
2023-03-15T07:53:17.372Z,96823.47
2023-03-15T07:55:45.093Z,96821.53
2023-03-15T07:58:20.548Z,96828.03
2023-03-15T08:00:48.215Z,96837.00
2023-03-15T08:03:15.441Z,96831.19
2023-03-15T08:05:42.322Z,96824.88
2023-03-15T08:08:09.144Z,96830.75
2023-03-15T08:10:35.867Z,96846.69
2023-03-15T08:13:02.916Z,96840.38
2023-03-15T08:15:30.710Z,96824.56
2023-03-15T08:17:57.400Z,96856.84
2023-03-15T08:20:24.003Z,96856.31
2023-03-15T08:22:51.862Z,96861.78
2023-03-15T08:25:22.066Z,96869.66
2023-03-15T08:27:49.158Z,96867.72
2023-03-15T08:30:16.660Z,96836.28
2023-03-15T08:32:45.178Z,96875.44
2023-03-15T08:35:15.739Z,96870.03
2023-03-15T08:37:48.085Z,96888.38
2023-03-15T08:40:19.027Z,96899.53
2023-03-15T08:42:46.091Z,96897.84
2023-03-15T08:45:13.361Z,96884.84
2023-03-15T08:47:39.922Z,96887.56
2023-03-15T08:50:09.623Z,96894.13
2023-03-15T08:52:36.513Z,96887.97
2023-03-15T08:55:04.984Z,96901.44
2023-03-15T08:57:33.020Z,96889.75
2023-03-15T09:00:01.568Z,96902.06
2023-03-15T09:02:31.126Z,96882.22
2023-03-15T09:04:57.740Z,96855.47
2023-03-15T09:07:24.436Z,96908.66
2023-03-15T09:09:54.312Z,96884.44
2023-03-15T09:12:21.665Z,96892.41
2023-03-15T09:14:48.325Z,96908.72
2023-03-15T09:17:15.320Z,96901.63
2023-03-15T09:19:41.981Z,96888.91
2023-03-15T09:22:16.848Z,96910.72
2023-03-15T09:24:52.616Z,96915.78
2023-03-15T09:27:19.750Z,96905.09
2023-03-15T09:29:46.364Z,96903.56
2023-03-15T09:32:13.468Z,96907.47
2023-03-15T09:34:42.227Z,96890.66
2023-03-15T09:37:09.679Z,96920.56
2023-03-15T09:39:36.409Z,96917.88
2023-03-15T09:42:08.865Z,96900.31
2023-03-15T09:44:45.843Z,96928.97
2023-03-15T09:47:25.847Z,96921.56
2023-03-15T09:49:59.311Z,96926.03
2023-03-15T09:52:44.570Z,96909.22
2023-03-15T09:55:27.695Z,96898.31
2023-03-15T09:57:59.424Z,96936.88
2023-03-15T10:00:42.699Z,96908.84
2023-03-15T10:03:19.037Z,96925.44
2023-03-15T10:05:49.094Z,96936.22
2023-03-15T10:08:20.420Z,96929.88
2023-03-15T10:11:04.456Z,96917.13
2023-03-15T10:13:53.157Z,96948.09
2023-03-15T10:16:41.878Z,96957.47
2023-03-15T10:19:21.883Z,96948.75
2023-03-15T10:21:49.567Z,96953.00
2023-03-15T10:24:21.134Z,96939.09
2023-03-15T10:26:50.534Z,96947.00
2023-03-15T10:29:27.111Z,96949.66
2023-03-15T10:31:55.309Z,96950.13
2023-03-15T10:34:23.615Z,96948.38
2023-03-15T10:36:55.596Z,96956.34
2023-03-15T10:39:23.089Z,96948.38
2023-03-15T10:41:51.182Z,96963.25
2023-03-15T10:44:26.700Z,96969.00
2023-03-15T10:47:22.645Z,96963.25
2023-03-15T10:49:56.405Z,96968.44
2023-03-15T10:52:35.761Z,96956.50
2023-03-15T10:55:18.728Z,96962.91
2023-03-15T10:58:27.694Z,96955.56
2023-03-15T11:01:01.054Z,96959.31
2023-03-15T11:03:28.651Z,96955.50
2023-03-15T11:05:58.119Z,96957.00
2023-03-15T11:08:45.083Z,96965.09
2023-03-15T11:11:11.857Z,96979.16
2023-03-15T11:13:40.539Z,96975.38
2023-03-15T11:16:13.275Z,96976.63
2023-03-15T11:18:45.078Z,96974.91
2023-03-15T11:21:18.419Z,96973.00
2023-03-15T11:23:48.684Z,96970.13
2023-03-15T11:26:33.164Z,96957.06
2023-03-15T11:29:16.018Z,96941.28
2023-03-15T11:31:42.813Z,96933.44
2023-03-15T11:34:16.452Z,96934.75
2023-03-15T11:37:05.314Z,96943.06
2023-03-15T11:39:45.661Z,96929.25
2023-03-15T11:42:48.458Z,96949.81
2023-03-15T11:45:58.603Z,96957.66
2023-03-15T11:48:28.322Z,96968.78
2023-03-15T11:50:56.258Z,96945.78
2023-03-15T11:53:27.490Z,96955.00
2023-03-15T11:55:54.850Z,96913.50
2023-03-15T11:58:42.743Z,96954.72
2023-03-15T12:01:11.675Z,96957.81
2023-03-15T12:03:42.311Z,96973.88
2023-03-15T12:06:13.463Z,96979.31
2023-03-15T12:08:52.548Z,96971.03
2023-03-15T12:11:22.126Z,96982.06
2023-03-15T12:14:25.549Z,96981.84
2023-03-15T12:16:57.408Z,96975.34
2023-03-15T12:19:27.195Z,96985.56
2023-03-15T12:21:57.799Z,96987.13
2023-03-15T12:24:32.538Z,96989.69
2023-03-15T12:27:06.723Z,96984.56
2023-03-15T12:29:35.557Z,96961.25
2023-03-15T12:32:02.079Z,96991.88
2023-03-15T12:34:47.064Z,96994.34
2023-03-15T12:37:31.679Z,96986.91
2023-03-15T12:40:16.544Z,96991.06
2023-03-15T12:42:43.103Z,96994.75
2023-03-15T12:45:15.862Z,97000.69
2023-03-15T12:47:51.686Z,96994.31
2023-03-15T12:50:39.962Z,96999.84
2023-03-15T12:53:23.697Z,96991.03
2023-03-15T12:55:54.059Z,97001.03
2023-03-15T12:58:35.044Z,96988.28
2023-03-15T13:01:05.802Z,97006.25
2023-03-15T13:03:34.947Z,96972.94
2023-03-15T13:06:15.978Z,97000.19
2023-03-15T13:08:57.433Z,96988.38
2023-03-15T13:11:45.571Z,97026.94
2023-03-15T13:14:22.755Z,97028.97
2023-03-15T13:17:21.337Z,97025.31
2023-03-15T13:19:56.325Z,97012.09
2023-03-15T13:22:55.380Z,97030.53
2023-03-15T13:26:13.861Z,97028.59
2023-03-15T13:28:47.380Z,97036.06
2023-03-15T13:31:19.943Z,97032.38
2023-03-15T13:33:58.246Z,97021.50
2023-03-15T13:36:47.137Z,97025.97
2023-03-15T13:39:34.031Z,97020.66
2023-03-15T13:42:18.550Z,97008.53
2023-03-15T13:44:45.353Z,97018.13
2023-03-15T13:47:24.603Z,97039.97
2023-03-15T13:49:56.957Z,97029.59
2023-03-15T13:52:23.775Z,97036.78
2023-03-15T13:54:53.978Z,97036.34
2023-03-15T13:57:22.591Z,97044.88
2023-03-15T13:59:57.807Z,97054.03
2023-03-15T14:02:56.825Z,97017.91
2023-03-15T14:05:32.629Z,97060.09
2023-03-15T14:08:02.849Z,97071.19
2023-03-15T14:10:37.250Z,97070.47
2023-03-15T14:13:34.337Z,97073.84
2023-03-15T14:16:06.899Z,97073.59
2023-03-15T14:18:39.316Z,97075.00
2023-03-15T14:21:21.827Z,97091.25
2023-03-15T14:23:49.670Z,97076.56
2023-03-15T14:26:28.347Z,97091.25
2023-03-15T14:29:02.512Z,97076.38
2023-03-15T14:31:38.682Z,97049.81
2023-03-15T14:34:36.877Z,97094.06
2023-03-15T14:37:09.982Z,97062.63
2023-03-15T14:39:41.998Z,97077.81
2023-03-15T14:42:12.264Z,97084.31
2023-03-15T14:44:38.986Z,97056.63
2023-03-15T14:47:17.466Z,97099.50
2023-03-15T14:49:45.104Z,97068.56
2023-03-15T14:52:14.234Z,97060.09
2023-03-15T14:54:48.558Z,97109.47
2023-03-15T14:57:15.209Z,97095.28
2023-03-15T14:59:41.998Z,97103.97
2023-03-15T15:02:15.747Z,97090.78
2023-03-15T15:04:43.945Z,97108.06
2023-03-15T15:07:14.958Z,97101.09
2023-03-15T15:09:47.563Z,97106.69
2023-03-15T15:12:15.813Z,97102.56
2023-03-15T15:14:45.130Z,97118.84
2023-03-15T15:17:12.896Z,97123.97
2023-03-15T15:19:39.456Z,97119.47
2023-03-15T15:22:06.000Z,97133.66
2023-03-15T15:24:32.733Z,97127.66
2023-03-15T15:26:59.699Z,97142.06
2023-03-15T15:29:26.313Z,97140.38
2023-03-15T15:31:53.195Z,97131.28
2023-03-15T15:34:19.997Z,97132.56
2023-03-15T15:36:47.592Z,97111.06
2023-03-15T15:39:27.705Z,97131.59
2023-03-15T15:41:54.374Z,97119.06
2023-03-15T15:44:24.064Z,97134.44
2023-03-15T15:46:52.257Z,97137.25
2023-03-15T15:49:19.582Z,97110.47
2023-03-15T15:51:50.127Z,97116.84
2023-03-15T15:54:20.766Z,97140.03
2023-03-15T15:56:57.054Z,97145.56
2023-03-15T15:59:27.255Z,97137.84
2023-03-15T16:02:01.120Z,97131.66
2023-03-15T16:04:29.348Z,97129.94
2023-03-15T16:07:03.851Z,97130.44
2023-03-15T16:09:35.982Z,97120.34
2023-03-15T16:12:03.818Z,97127.44
2023-03-15T16:14:30.636Z,97134.50
2023-03-15T16:16:57.325Z,97137.59
2023-03-15T16:19:24.016Z,97139.31
2023-03-15T16:21:54.488Z,97136.63
2023-03-15T16:24:23.368Z,97156.00
2023-03-15T16:26:50.551Z,97163.88
2023-03-15T16:29:21.286Z,97158.06
2023-03-15T16:31:48.788Z,97108.19
2023-03-15T16:34:18.658Z,97164.53
2023-03-15T16:36:54.881Z,97156.00
2023-03-15T16:39:22.723Z,97153.69
2023-03-15T16:41:49.708Z,97166.06
2023-03-15T16:44:19.001Z,97169.28
2023-03-15T16:46:46.534Z,97162.44
2023-03-15T16:49:15.555Z,97171.75
2023-03-15T16:51:45.985Z,97167.75
2023-03-15T16:54:22.027Z,97176.06
2023-03-15T16:56:54.654Z,97162.50
2023-03-15T16:59:21.475Z,97177.59
2023-03-15T17:01:50.611Z,97184.13
2023-03-15T17:04:17.362Z,97190.97
2023-03-15T17:06:47.781Z,97186.25
2023-03-15T17:09:19.181Z,97173.22
2023-03-15T17:11:49.814Z,97189.59
2023-03-15T17:14:19.705Z,97209.16
2023-03-15T17:16:46.492Z,97205.97
2023-03-15T17:19:14.765Z,97213.31
2023-03-15T17:21:42.848Z,97206.25
2023-03-15T17:24:11.376Z,97203.09
2023-03-15T17:26:38.853Z,97193.53
2023-03-15T17:29:05.950Z,97220.84
2023-03-15T17:31:35.846Z,97232.50
2023-03-15T17:34:02.711Z,97224.19
2023-03-15T17:36:34.612Z,97223.94
2023-03-15T17:39:04.541Z,97219.78
2023-03-15T17:41:34.717Z,97205.22
2023-03-15T17:44:01.779Z,97227.44
2023-03-15T17:46:30.341Z,97228.88
2023-03-15T17:48:58.531Z,97245.53
2023-03-15T17:51:28.005Z,97234.06
2023-03-15T17:53:55.238Z,97242.66
2023-03-15T17:56:24.630Z,97226.38
2023-03-15T17:58:52.646Z,97242.44
2023-03-15T18:01:22.906Z,97221.63
2023-03-15T18:03:51.220Z,97248.59
2023-03-15T18:06:20.643Z,97229.59
2023-03-15T18:08:48.610Z,97246.78
2023-03-15T18:11:20.721Z,97254.31
2023-03-15T18:13:48.459Z,97241.19
2023-03-15T18:16:18.242Z,97244.63
2023-03-15T18:18:45.290Z,97250.88
2023-03-15T18:21:17.738Z,97260.78
2023-03-15T18:23:44.783Z,97223.63
2023-03-15T18:26:12.797Z,97255.72
2023-03-15T18:28:40.367Z,97257.59
2023-03-15T18:31:14.773Z,97255.81
2023-03-15T18:33:41.625Z,97258.25
2023-03-15T18:36:08.816Z,97254.44
2023-03-15T18:38:36.260Z,97249.66
2023-03-15T18:41:02.861Z,97266.09
2023-03-15T18:43:29.579Z,97256.75
2023-03-15T18:45:56.283Z,97267.81
2023-03-15T18:48:39.793Z,97286.88
2023-03-15T18:51:12.344Z,97284.50
2023-03-15T18:53:39.513Z,97273.28
2023-03-15T18:56:06.548Z,97276.22
2023-03-15T18:58:33.292Z,97288.81
2023-03-15T19:00:59.934Z,97280.53
2023-03-15T19:03:27.585Z,97285.66
2023-03-15T19:05:54.378Z,97270.41
2023-03-15T19:08:20.949Z,97291.91
2023-03-15T19:10:48.009Z,97290.38
2023-03-15T19:13:14.597Z,97280.25
2023-03-15T19:15:41.228Z,97293.91
2023-03-15T19:18:08.367Z,97269.56
2023-03-15T19:20:36.500Z,97296.91
2023-03-15T19:23:03.476Z,97282.16
2023-03-15T19:25:30.120Z,97301.75
2023-03-15T19:27:57.443Z,97292.97
2023-03-15T19:30:24.191Z,97300.19
2023-03-15T19:32:51.210Z,97285.22
2023-03-15T19:35:20.612Z,97309.13
2023-03-15T19:37:48.088Z,97314.75
2023-03-15T19:40:16.905Z,97303.22
2023-03-15T19:42:43.870Z,97298.44
2023-03-15T19:45:12.073Z,97315.28
2023-03-15T19:47:38.726Z,97301.91
2023-03-15T19:50:06.235Z,97314.78
2023-03-15T19:52:33.646Z,97317.47
2023-03-15T19:55:01.565Z,97325.53
2023-03-15T19:57:29.531Z,97317.47
2023-03-15T19:59:56.136Z,97324.44
2023-03-15T20:02:23.074Z,97319.91
2023-03-15T20:04:49.689Z,97326.06
2023-03-15T20:07:17.395Z,97314.28
2023-03-15T20:09:43.979Z,97325.00
2023-03-15T20:12:12.390Z,97333.56
2023-03-15T20:14:39.346Z,97332.78
2023-03-15T20:17:05.952Z,97310.56
2023-03-15T20:19:32.586Z,97339.50
2023-03-15T20:21:59.756Z,97337.91
2023-03-15T20:24:27.674Z,97334.69
2023-03-15T20:26:54.553Z,97343.00
2023-03-15T20:29:24.260Z,97344.88
2023-03-15T20:31:53.902Z,97335.75
2023-03-15T20:34:22.628Z,97353.19
2023-03-15T20:36:50.042Z,97355.59
2023-03-15T20:39:19.475Z,97355.88
2023-03-15T20:41:54.467Z,97335.25
2023-03-15T20:44:21.676Z,97363.94
2023-03-15T20:46:49.585Z,97355.38
2023-03-15T20:49:17.993Z,97366.34
2023-03-15T20:51:45.256Z,97374.91
2023-03-15T20:54:12.241Z,97361.53
2023-03-15T20:56:40.021Z,97369.03
2023-03-15T20:59:07.449Z,97369.28
2023-03-15T21:01:34.923Z,97356.16
2023-03-15T21:04:01.770Z,97374.94
2023-03-15T21:06:28.447Z,97384.88
2023-03-15T21:08:55.197Z,97349.44
2023-03-15T21:11:21.877Z,97326.66
2023-03-15T21:13:48.723Z,97373.31
2023-03-15T21:16:15.477Z,97372.78
2023-03-15T21:18:45.152Z,97385.91
2023-03-15T21:21:11.795Z,97354.81
2023-03-15T21:23:38.492Z,97390.72
2023-03-15T21:26:07.990Z,97386.19
2023-03-15T21:28:34.621Z,97394.75
2023-03-15T21:31:01.884Z,97357.75
2023-03-15T21:33:31.156Z,97406.03
2023-03-15T21:35:59.391Z,97401.75
2023-03-15T21:38:28.263Z,97390.47
2023-03-15T21:40:59.345Z,97385.91
2023-03-15T21:43:31.399Z,97400.13
2023-03-15T21:46:07.374Z,97402.56
2023-03-15T21:48:34.617Z,97396.66
2023-03-15T21:51:02.168Z,97399.59
2023-03-15T21:53:30.014Z,97407.09
2023-03-15T21:55:58.564Z,97387.78
2023-03-15T21:58:26.186Z,97403.34
2023-03-15T22:01:05.105Z,97402.56
2023-03-15T22:03:33.028Z,97417.31
2023-03-15T22:06:00.357Z,97405.78
2023-03-15T22:08:28.463Z,97414.06
2023-03-15T22:10:56.964Z,97412.72
2023-03-15T22:13:23.674Z,97415.94
2023-03-15T22:15:56.454Z,97427.97
2023-03-15T22:18:23.554Z,97414.03
2023-03-15T22:20:51.084Z,97429.59
2023-03-15T22:23:18.722Z,97430.09
2023-03-15T22:25:45.961Z,97434.41
2023-03-15T22:28:17.956Z,97423.13
2023-03-15T22:30:48.131Z,97434.41
2023-03-15T22:33:16.231Z,97424.47
2023-03-15T22:35:42.904Z,97416.13
2023-03-15T22:38:12.702Z,97431.72
2023-03-15T22:40:40.992Z,97437.59
2023-03-15T22:43:09.158Z,97437.34
2023-03-15T22:45:35.971Z,97437.59
2023-03-15T22:48:02.890Z,97439.72
2023-03-15T22:50:29.595Z,97426.00
2023-03-15T22:52:56.704Z,97432.94
2023-03-15T22:55:23.370Z,97449.59
2023-03-15T22:57:50.032Z,97415.16
2023-03-15T23:00:22.035Z,97447.09
2023-03-15T23:02:48.758Z,97447.31
2023-03-15T23:05:15.461Z,97432.78
2023-03-15T23:07:42.569Z,97465.28
2023-03-15T23:10:11.485Z,97463.13
2023-03-15T23:12:38.082Z,97467.09
2023-03-15T23:15:05.154Z,97475.13
2023-03-15T23:17:32.326Z,97461.72
2023-03-15T23:19:59.184Z,97460.88
2023-03-15T23:22:25.789Z,97471.59
2023-03-15T23:24:52.374Z,97471.63
2023-03-15T23:27:19.076Z,97474.81
2023-03-15T23:29:54.162Z,97484.97
2023-03-15T23:32:21.775Z,97477.47
2023-03-15T23:34:48.786Z,97492.72
2023-03-15T23:37:15.478Z,97489.75
2023-03-15T23:39:42.613Z,97496.16
2023-03-15T23:42:10.418Z,97495.56
2023-03-15T23:44:38.129Z,97504.47
2023-03-15T23:47:05.853Z,97503.13
2023-03-15T23:49:33.792Z,97469.03
2023-03-15T23:52:05.893Z,97488.59
2023-03-15T23:54:40.005Z,97503.38
2023-03-15T23:57:12.068Z,97503.38
2023-03-15T23:59:40.278Z,97505.78
